Date,TemperatureHighF,TemperatureAvgF,TemperatureLowF,DewpointHighF,DewpointAvgF,DewpointLowF,HumidityHigh,HumidityAvg,HumidityLow,PressureMaxIn,PressureMinIn,WindSpeedMaxMPH,WindSpeedAvgMPH,GustSpeedMaxMPH,PrecipitationSumIn
2013-1-1,18,8,-2,3,-2,-9,81,63,45,30.44,30.26,5,1,5,0.00
2013-1-2,30,21,9,24,13,1,81,71,57,30.25,30.11,12,3,12,0.00
2013-1-3,31,20,12,24,12,5,78,71,63,30.46,30.22,20,5,20,0.00
2013-1-4,36,25,13,22,16,7,79,69,51,30.40,30.22,14,2,14,0.00
2013-1-5,39,29,21,30,21,15,82,73,64,30.22,29.98,18,5,18,0.00
2013-1-6,29,22,14,17,13,6,73,69,59,30.39,30.16,22,5,22,0.00
2013-1-7,45,34,24,27,22,16,80,63,47,30.26,30.04,20,4,20,0.00
2013-1-8,47,36,27,31,26,21,88,70,51,30.12,29.88,20,4,20,0.00
2013-1-9,44,37,29,31,27,23,81,68,56,30.48,30.12,13,2,13,0.00
2013-1-10,43,36,32,33,27,21,85,70,42,30.43,29.76,14,4,14,0.00
2013-1-11,54,45,36,44,39,32,87,79,62,29.77,29.48,24,7,24,0.00
2013-1-12,52,24,14,39,12,2,78,61,55,30.19,29.55,22,8,22,0.00
2013-1-13,19,13,8,6,2,-2,68,61,55,30.42,30.13,20,6,20,0.00
2013-1-14,30,18,7,10,5,0,75,58,35,30.56,30.42,10,1,10,0.00
2013-1-15,36,24,14,12,9,6,74,54,33,30.46,30.11,14,2,14,0.00
2013-1-16,48,34,23,32,22,8,76,59,49,30.26,29.93,15,6,15,0.00
2013-1-17,36,26,17,23,14,7,77,61,38,30.54,30.25,4,0,4,0.00
2013-1-18,56,43,23,30,26,16,75,53,35,30.41,29.89,0,0,0,0.00
2013-1-19,52,40,18,31,25,1,67,54,32,30.34,29.84,28,6,28,0.00
2013-1-20,18,12,7,6,2,-2,71,63,49,30.50,30.33,14,3,14,0.00
2013-1-21,9,4,-3,-2,-7,-16,71,58,52,30.57,30.45,20,6,20,0.00
2013-1-22,18,11,3,1,-4,-7,63,52,40,30.55,30.38,10,1,10,0.00
2013-1-23,28,17,5,15,4,-7,67,57,47,30.63,30.26,18,7,18,0.00
2013-1-24,20,11,3,2,-6,-10,58,45,33,30.72,30.30,18,6,18,0.00
2013-1-25,38,25,13,21,11,-2,71,55,44,30.38,30.16,20,6,20,0.00
2013-1-26,37,23,9,12,4,-2,64,46,29,30.44,30.20,17,6,17,0.00
2013-1-27,38,35,32,34,27,12,86,74,42,30.19,29.78,17,5,17,0.01
2013-1-28,50,38,35,46,35,31,87,86,85,29.95,29.59,12,3,12,0.00
2013-1-29,58,39,32,54,34,26,88,83,78,29.72,29.52,20,6,20,0.00
2013-1-30,32,23,14,26,17,6,84,77,67,29.95,29.55,28,12,28,0.00
2013-1-31,14,6,-1,6,-4,-11,71,63,57,30.50,29.96,23,10,23,0.00
2013-2-1,25,8,-5,14,-4,-13,69,60,46,30.53,30.12,17,5,17,0.00
2013-2-2,33,22,16,25,12,5,81,68,54,30.28,30.05,17,5,17,0.00
2013-2-3,34,27,17,25,14,9,74,60,40,30.26,29.84,28,7,28,0.00
2013-2-4,36,25,20,24,16,12,75,69,62,30.09,29.79,17,4,17,0.00
2013-2-5,45,32,22,32,24,15,81,71,56,30.16,29.86,18,4,18,0.00
2013-2-6,46,36,24,32,27,19,83,70,55,30.17,29.95,17,5,17,0.00
2013-2-7,42,34,28,35,28,22,89,79,63,30.27,29.91,17,5,17,0.00
2013-2-8,31,27,24,22,20,18,78,75,69,30.43,30.27,17,5,17,0.00
2013-2-9,38,32,28,29,25,21,82,76,69,30.32,29.87,22,9,22,0.00
2013-2-10,52,38,32,43,31,21,86,76,54,29.87,29.29,26,12,26,0.00
2013-2-11,32,30,28,22,20,18,69,64,61,30.19,29.64,33,13,33,0.00
2013-2-12,45,34,21,24,21,15,81,60,39,30.21,29.91,13,3,13,0.00
2013-2-13,52,38,27,28,24,19,75,58,34,29.92,29.72,13,4,13,0.00
2013-2-14,42,36,24,28,24,10,72,63,47,30.25,29.74,24,9,24,0.00
2013-2-15,28,22,17,11,9,5,71,57,44,30.41,30.25,16,5,16,0.00
2013-2-16,37,24,11,15,11,5,77,59,35,30.39,30.15,12,2,12,0.00
2013-2-17,48,34,21,23,18,13,74,54,34,30.15,29.68,23,8,23,0.00
2013-2-18,43,31,17,31,20,5,77,64,55,30.00,29.59,28,9,28,0.00
2013-2-19,22,16,8,6,1,-3,66,52,38,30.48,30.00,26,13,26,0.00
2013-2-20,24,14,1,7,-2,-8,66,51,35,30.55,30.38,12,3,12,0.00
2013-2-21,26,22,18,19,13,7,82,68,52,30.40,29.90,22,7,22,0.00
2013-2-22,26,24,22,20,18,14,82,77,70,30.06,29.84,17,5,17,0.00
2013-2-23,34,24,12,19,14,6,78,66,50,30.06,29.97,12,2,12,0.00
2013-2-24,46,30,16,26,20,10,79,65,42,30.12,30.00,7,1,7,0.00
2013-2-25,41,34,28,27,25,22,79,68,51,30.14,29.94,10,2,10,0.00
2013-2-26,32,31,28,28,25,22,85,80,71,29.94,29.76,21,8,21,0.00
2013-2-27,31,28,25,24,22,18,84,80,70,30.06,29.84,17,6,17,0.00
2013-2-28,32,27,22,23,20,16,81,74,66,30.24,30.06,15,6,15,0.00
2013-3-1,30,27,25,21,18,13,77,69,60,30.39,30.22,13,4,13,0.00
2013-3-2,30,24,16,18,15,9,76,68,60,30.41,30.24,10,3,10,0.00
2013-3-3,38,30,22,21,17,14,73,60,44,30.24,29.95,21,8,21,0.00
2013-3-4,40,33,29,28,25,21,82,73,60,30.00,29.82,20,7,20,0.00
2013-3-5,32,29,26,28,22,17,84,73,64,30.36,29.99,23,8,23,0.00
2013-3-6,31,26,19,19,17,13,77,69,56,30.50,30.36,14,4,14,0.00
2013-3-7,37,26,14,21,17,9,81,68,50,30.45,30.30,16,5,16,0.00
2013-3-8,47,36,25,32,26,19,81,66,49,30.34,30.06,18,7,18,0.00
2013-3-9,42,40,38,38,35,32,86,83,78,30.06,29.66,18,6,18,0.00
2013-3-10,40,35,32,36,31,27,86,85,84,29.86,29.67,24,6,24,0.00
2013-3-11,32,27,24,27,21,17,84,79,72,30.02,29.79,17,3,17,0.00
2013-3-12,33,27,22,24,18,14,78,70,63,30.32,30.01,25,9,25,0.00
2013-3-13,34,25,16,17,14,9,81,63,44,30.53,30.32,14,4,14,0.00
2013-3-14,50,38,27,32,26,15,80,62,43,30.38,30.11,14,4,14,0.00
2013-3-15,62,42,29,42,33,24,84,72,42,30.11,29.73,12,2,12,0.00
2013-3-16,37,33,27,32,24,17,81,68,53,30.26,29.82,21,8,21,0.00
2013-3-17,40,32,22,25,19,14,71,60,44,30.26,29.88,23,8,23,0.00
2013-3-18,34,30,22,30,20,10,84,68,51,30.06,29.77,28,9,28,0.00
2013-3-19,37,26,17,19,12,4,69,55,39,30.33,30.06,16,6,16,0.01
2013-3-20,27,22,15,15,7,0,68,53,40,30.42,30.22,21,9,21,0.00
2013-3-21,36,24,10,15,8,3,73,51,31,30.23,30.03,12,3,12,0.00
2013-3-22,40,30,19,22,15,11,79,55,31,30.14,30.05,9,2,9,0.00
2013-3-23,41,32,28,25,20,14,78,60,36,30.18,30.06,12,3,12,0.00
2013-3-24,32,30,27,25,23,20,82,77,62,30.08,29.96,20,6,20,0.00
2013-3-25,36,31,27,24,21,18,83,68,51,30.32,30.03,20,6,20,0.00
2013-3-26,40,30,22,21,18,14,73,60,40,30.41,30.32,15,4,15,0.00
2013-3-27,49,36,22,24,20,16,81,55,32,30.40,30.29,12,2,12,0.00
2013-3-28,59,43,28,31,26,21,81,53,30,30.35,30.24,17,3,17,0.00
2013-3-29,65,49,31,33,29,26,82,49,24,30.30,30.12,16,4,16,0.00
2013-3-30,61,51,45,49,40,30,82,68,46,30.12,29.88,15,4,15,0.01
2013-3-31,52,43,34,39,29,17,85,62,27,30.14,29.91,21,7,21,0.00
2013-4-1,40,31,23,19,14,11,68,51,31,30.36,30.14,21,6,21,0.00
2013-4-2,48,34,20,21,16,11,77,51,24,30.40,30.33,20,3,20,0.00
2013-4-3,54,39,27,20,17,14,69,44,22,30.46,30.28,15,3,15,0.00
2013-4-4,63,48,32,35,24,16,57,41,25,30.28,30.05,17,4,17,0.00
2013-4-5,62,49,32,32,26,20,81,45,22,30.23,29.82,22,7,22,0.00
2013-4-6,70,59,48,43,38,32,68,47,37,29.82,29.53,22,9,22,0.00
2013-4-7,68,51,34,41,36,29,84,61,34,29.96,29.66,16,4,16,0.00
2013-4-8,77,63,48,54,48,41,85,61,33,29.77,29.61,20,3,20,0.01
2013-4-9,64,52,43,56,47,38,86,83,71,29.94,29.68,18,6,18,0.00
2013-4-10,43,40,39,38,36,34,85,83,81,29.98,29.74,20,5,20,0.00
2013-4-11,42,38,36,37,34,31,86,83,76,29.77,29.62,16,2,16,0.00
2013-4-12,37,37,37,32,32,32,81,81,81,29.66,29.66,0,0,6,0.00
2013-4-13,37,37,37,32,32,32,81,81,81,29.66,29.66,0,0,6,0.00
2013-4-14,69,50,37,51,40,32,81,72,46,29.66,29.42,30,4,30,0.00
2013-4-15,51,42,36,40,30,24,77,64,50,30.11,29.65,20,4,20,0.00
2013-4-16,52,42,31,32,28,24,78,59,42,30.29,30.10,15,4,15,0.15
2013-4-17,47,43,41,43,37,31,89,78,55,30.22,29.58,25,6,25,2.16
2013-4-18,43,38,34,39,32,27,89,81,71,29.79,29.58,22,10,22,0.64
2013-4-19,43,36,30,27,23,19,75,59,39,30.13,29.74,29,13,29,0.00
2013-4-20,52,39,27,23,19,12,74,49,21,30.33,30.13,18,4,18,0.00
2013-4-21,69,53,42,45,32,22,74,46,20,30.27,30.07,23,9,23,0.03
2013-4-22,70,53,37,47,43,31,85,70,35,30.17,29.91,20,5,20,0.50
2013-4-23,43,37,33,31,25,19,80,64,44,30.20,30.09,20,9,20,0.02
2013-4-24,57,42,27,33,24,16,81,51,22,30.22,30.05,20,6,20,0.00
2013-4-25,66,50,34,32,27,21,72,45,20,30.31,30.14,18,6,18,0.00
2013-4-26,70,59,50,46,40,32,72,51,39,30.21,30.09,28,8,28,0.00
2013-4-27,73,58,44,45,42,38,83,59,32,30.24,29.99,16,3,16,0.00
2013-4-28,80,63,46,49,45,40,82,54,28,30.01,29.74,18,5,18,0.00
2013-4-29,84,70,56,58,52,47,76,55,33,29.77,29.51,20,4,20,0.00
2013-4-30,86,75,60,58,49,41,58,40,30,29.85,29.51,25,9,25,0.00
2013-5-1,60,50,40,45,37,31,74,62,51,30.36,29.85,28,13,28,0.00
2013-5-2,39,34,33,32,30,29,84,83,73,30.50,30.32,25,10,25,1.39
2013-5-3,34,34,33,30,29,28,85,83,80,30.41,30.02,20,9,20,0.53
2013-5-4,47,40,34,43,36,30,86,85,83,30.11,29.94,21,5,21,0.80
2013-5-5,60,50,43,51,44,39,86,81,71,30.15,30.07,12,4,12,0.04
2013-5-6,77,60,46,52,46,41,85,63,30,30.13,30.01,15,3,15,0.00
2013-5-7,84,67,49,51,44,34,84,50,18,30.07,29.95,12,1,12,0.00
2013-5-8,76,62,51,56,51,45,83,70,38,30.01,29.91,13,1,13,0.08
2013-5-9,72,61,54,56,53,48,86,77,50,29.94,29.83,16,4,16,1.13
2013-5-10,70,57,48,49,45,42,82,67,38,30.05,29.93,16,5,16,0.00
2013-5-11,58,52,44,43,26,12,80,40,17,30.23,29.96,26,8,26,0.00
2013-5-12,64,55,42,26,18,11,51,26,13,30.30,30.13,15,4,15,0.00
2013-5-13,80,61,38,47,35,26,71,41,19,30.16,29.82,26,6,26,0.00
2013-5-14,98,81,62,58,50,41,67,39,19,29.82,29.57,21,6,21,0.00
2013-5-15,86,74,62,48,38,22,48,29,11,29.90,29.70,15,3,15,0.00
2013-5-16,86,73,58,61,54,43,66,52,38,29.90,29.78,17,3,17,0.00
2013-5-17,87,74,63,61,57,53,80,59,34,29.92,29.81,16,4,16,0.00
2013-5-18,88,74,60,62,58,55,84,60,35,29.92,29.73,18,4,18,0.00
2013-5-19,91,74,61,64,58,50,85,60,27,29.76,29.50,29,7,29,0.86
2013-5-20,82,68,60,60,56,53,86,69,38,29.66,29.52,20,6,20,0.74
2013-5-21,72,64,59,56,49,42,84,60,39,29.68,29.55,17,4,17,0.00
2013-5-22,64,58,54,54,50,46,82,73,64,29.90,29.65,15,4,15,0.07
2013-5-23,74,61,52,49,44,36,83,58,26,30.26,29.90,17,5,17,0.00
2013-5-24,74,68,60,47,43,39,56,41,28,30.32,30.14,20,8,20,0.00
2013-5-25,62,56,52,52,48,42,84,76,49,30.25,30.11,24,5,24,0.62
2013-5-26,64,56,52,56,50,46,85,80,70,30.16,29.90,20,5,20,0.60
2013-5-27,80,67,58,61,57,54,87,72,47,29.99,29.67,33,3,33,1.07
2013-5-28,84,72,62,64,61,57,86,70,45,29.74,29.58,12,2,12,0.83
2013-5-29,86,71,65,68,61,55,85,72,48,29.77,29.62,20,6,20,1.64
2013-5-30,74,69,64,63,59,56,81,70,59,29.67,29.54,28,8,28,0.08
2013-5-31,81,71,61,61,58,51,84,66,44,29.68,29.61,22,7,22,0.00
2013-6-1,71,63,56,60,52,46,82,68,56,29.94,29.61,15,4,15,0.20
2013-6-2,71,59,51,48,43,39,76,57,34,30.09,29.94,21,5,21,0.00
2013-6-3,78,62,45,49,44,41,85,56,29,30.09,29.92,15,4,15,0.00
2013-6-4,69,62,56,59,53,47,84,73,60,30.05,29.94,18,4,18,0.29
2013-6-5,74,65,57,60,56,49,86,74,47,30.00,29.91,10,2,10,0.78
2013-6-6,72,62,52,54,49,47,82,64,42,29.98,29.91,16,4,16,0.00
2013-6-7,75,61,50,52,48,45,85,65,37,30.03,29.92,12,2,12,0.00
2013-6-8,78,63,50,58,52,45,86,69,39,29.94,29.75,16,3,16,0.27
2013-6-9,74,66,61,62,58,56,85,76,58,29.76,29.69,15,4,15,0.35
2013-6-10,86,68,59,61,58,54,86,72,40,29.89,29.74,9,1,9,0.00
2013-6-11,92,77,62,69,64,57,85,66,41,29.88,29.69,25,2,25,0.00
2013-6-12,94,80,66,70,64,53,83,60,42,29.86,29.65,21,7,21,0.00
2013-6-13,89,73,60,57,53,46,77,51,24,30.04,29.86,15,3,15,0.00
2013-6-14,80,68,63,63,58,54,85,69,51,30.06,29.83,26,4,26,0.76
2013-6-15,87,73,63,68,63,58,86,71,43,30.00,29.82,18,3,18,0.11
2013-6-16,92,77,67,66,55,36,83,54,16,29.95,29.89,12,2,12,0.00
2013-6-17,94,77,60,59,52,43,83,48,18,29.96,29.87,12,2,12,0.00
2013-6-18,88,75,61,58,53,46,76,49,25,29.99,29.92,10,1,10,0.00
2013-6-19,90,76,64,62,59,53,82,59,30,30.04,29.94,16,4,16,0.00
2013-6-20,92,80,67,64,61,58,73,53,36,29.99,29.87,21,8,21,0.00
2013-6-21,92,82,76,72,68,63,74,63,48,29.94,29.79,20,7,20,0.00
2013-6-22,96,84,73,70,66,59,69,55,39,29.97,29.79,20,6,20,0.00
2013-6-23,85,77,67,68,65,59,83,67,46,29.94,29.77,18,5,18,0.46
2013-6-24,81,72,67,70,65,61,86,78,56,29.96,29.78,21,3,21,0.96
2013-6-25,93,80,70,71,68,62,86,68,38,29.80,29.67,18,4,18,0.07
2013-6-26,94,83,75,75,66,56,78,59,30,29.82,29.61,18,3,18,0.00
2013-6-27,90,78,66,65,62,58,83,60,35,29.93,29.81,12,2,12,0.00
2013-6-28,88,78,68,60,53,43,70,45,22,29.87,29.75,24,6,24,0.00
2013-6-29,78,71,65,60,54,50,73,56,40,29.90,29.75,25,7,25,0.00
2013-6-30,83,70,59,54,49,38,77,51,24,30.07,29.90,15,4,15,0.00
2013-7-1,87,72,56,54,48,41,76,47,22,30.13,30.07,15,2,15,0.00
2013-7-2,90,72,56,60,52,47,80,55,23,30.12,30.00,13,2,13,0.01
2013-7-3,88,72,57,59,54,46,85,59,26,30.05,29.95,13,2,13,0.00
2013-7-4,90,76,60,58,55,48,83,51,25,30.01,29.91,18,4,18,0.00
2013-7-5,93,79,64,60,56,54,71,48,28,29.96,29.86,20,6,20,0.00
2013-7-6,96,82,69,63,59,57,65,48,30,29.93,29.82,20,6,20,0.00
2013-7-7,96,84,73,68,62,58,66,50,31,29.87,29.81,20,5,20,0.00
2013-7-8,95,84,76,71,67,64,80,59,40,29.93,29.86,10,2,10,0.00
2013-7-9,98,84,75,72,70,68,82,65,41,29.94,29.81,12,2,12,0.05
2013-7-10,87,78,66,69,56,44,73,50,23,30.04,29.86,18,4,18,0.00
2013-7-11,91,76,60,57,53,47,81,50,24,30.10,29.99,14,2,14,0.00
2013-7-12,91,78,65,58,56,53,69,49,30,30.06,29.95,20,7,20,0.00
2013-7-13,83,74,67,63,57,51,64,54,46,30.04,29.97,17,6,17,0.00
2013-7-14,92,79,66,61,59,56,74,52,31,30.14,30.04,18,3,18,0.00
2013-7-15,93,80,66,68,64,59,82,60,40,30.20,30.10,15,2,15,0.00
2013-7-16,98,85,72,69,66,62,81,56,32,30.22,30.14,12,2,12,0.00
2013-7-17,101,86,73,68,66,60,79,54,28,30.26,30.13,12,2,12,0.00
2013-7-18,97,86,75,68,65,59,75,52,30,30.14,29.88,16,3,16,0.00
2013-7-19,99,86,74,67,63,54,63,48,24,29.89,29.77,12,3,12,0.00
2013-7-20,97,79,62,61,56,45,82,50,18,29.94,29.83,7,1,7,0.00
2013-7-21,84,73,65,69,63,57,81,70,49,29.89,29.78,15,2,15,0.19
2013-7-22,97,80,66,70,64,59,85,63,33,29.90,29.67,18,3,18,0.54
2013-7-23,83,71,64,64,57,53,85,64,38,29.98,29.77,14,2,14,0.00
2013-7-24,86,71,57,56,54,50,85,59,32,30.06,29.98,9,1,9,0.00
2013-7-25,91,76,63,63,59,56,78,57,35,30.04,29.92,15,4,15,0.00
2013-7-26,80,72,62,65,55,46,84,59,32,30.04,29.91,18,5,18,0.10
2013-7-27,74,63,52,50,45,38,81,55,29,30.10,29.99,17,3,17,0.00
2013-7-28,80,66,52,51,45,41,72,50,26,30.06,29.98,13,2,13,0.00
2013-7-29,78,67,54,57,53,49,84,63,41,30.11,30.04,16,2,16,0.00
2013-7-30,74,70,65,66,63,57,86,81,69,30.07,30.02,9,1,9,0.40
2013-7-31,88,76,65,68,60,52,83,60,36,30.11,29.99,10,1,10,0.00
2013-8-1,93,77,61,64,56,46,72,51,21,30.06,29.86,10,1,10,0.00
2013-8-2,86,75,66,65,60,52,71,61,43,29.99,29.86,17,2,17,0.00
2013-8-3,82,73,63,59,54,46,73,54,29,30.16,29.99,12,2,12,0.00
2013-8-4,86,73,57,59,52,46,73,52,30,30.18,30.01,15,3,15,0.00
2013-8-5,88,77,67,71,64,56,70,65,46,30.01,29.75,14,2,14,0.00
2013-8-6,94,80,68,72,62,51,70,56,34,29.87,29.73,12,2,12,0.00
2013-8-7,84,73,68,66,58,55,68,60,44,29.99,29.76,13,2,13,0.00
2013-8-8,86,74,59,63,56,47,70,56,32,30.02,29.94,8,1,8,0.00
2013-8-9,82,75,66,67,59,49,69,58,33,30.11,29.97,13,2,13,0.00
2013-8-10,89,74,57,61,53,43,70,51,29,30.19,30.06,9,1,9,0.00
2013-8-11,90,79,68,63,59,57,68,52,34,30.09,29.95,12,3,12,0.00
2013-8-12,85,74,66,66,54,50,67,52,34,30.04,29.95,15,4,15,0.29
2013-8-13,82,70,57,59,51,44,67,53,32,30.16,30.03,12,2,12,0.00
2013-8-14,81,68,54,53,46,41,67,48,26,30.22,30.11,9,1,9,0.00
2013-8-15,76,68,60,56,50,46,67,55,37,30.15,30.08,16,3,16,0.01
2013-8-16,84,68,53,56,47,38,67,49,26,30.19,30.12,12,1,12,0.00
2013-8-17,89,71,54,57,48,39,67,47,24,30.22,30.10,13,1,13,0.00
2013-8-18,87,73,57,58,52,43,66,51,29,30.16,30.04,14,2,14,0.00
2013-8-19,88,75,60,62,56,43,65,52,36,30.07,29.95,17,3,17,0.00
2013-8-20,93,82,73,66,62,60,64,52,34,29.97,29.88,21,6,21,0.00
2013-8-21,96,84,76,65,63,60,64,50,31,29.97,29.90,16,4,16,0.00
2013-8-22,87,80,71,67,64,56,64,58,44,30.07,29.94,10,1,10,0.00
2013-8-23,92,80,68,71,61,48,64,53,45,30.09,29.99,17,3,17,0.00
2013-8-24,96,84,73,70,65,58,65,54,36,30.10,30.00,22,6,22,0.00
2013-8-25,98,86,76,67,64,58,64,50,28,30.12,30.01,20,6,20,0.00
2013-8-26,100,87,75,70,65,60,65,50,27,30.07,29.90,15,4,15,0.00
2013-8-27,99,88,80,67,66,63,63,49,33,29.92,29.82,17,4,17,0.00
2013-8-28,101,87,77,67,62,57,63,46,25,29.95,29.87,12,2,12,0.00
2013-8-29,99,86,71,71,66,58,66,53,33,30.00,29.86,16,2,16,0.00
2013-8-30,105,89,76,74,66,56,66,51,21,29.86,29.72,13,3,13,0.00
2013-8-31,96,82,68,70,62,54,66,53,26,29.82,29.73,9,1,9,0.00
2013-9-1,84,76,67,65,56,48,65,52,31,29.94,29.70,22,4,22,0.83
2013-9-2,81,68,55,57,49,39,65,52,30,30.05,29.94,12,2,12,0.00
2013-9-3,86,68,51,58,48,34,65,50,28,30.12,30.01,6,1,6,0.00
2013-9-4,94,77,59,62,54,41,65,47,24,30.13,30.02,12,1,12,0.00
2013-9-5,97,81,70,64,59,53,63,50,26,30.17,30.07,10,1,10,0.00
2013-9-6,94,80,65,61,55,48,65,44,26,30.10,29.90,16,4,16,0.00
2013-9-7,96,83,75,69,63,56,62,52,35,29.91,29.81,13,3,13,0.00
2013-9-8,92,81,71,70,62,46,62,52,40,29.89,29.77,10,2,10,0.00
2013-9-9,102,86,72,64,57,52,62,41,20,29.82,29.74,17,4,17,0.00
2013-9-10,98,85,75,64,59,56,59,42,25,29.95,29.81,21,3,21,0.00
2013-9-11,88,80,71,67,62,55,61,55,42,30.06,29.94,12,2,12,0.00
2013-9-12,80,71,60,60,47,36,63,45,21,30.17,30.03,18,4,18,0.00
2013-9-13,76,63,51,47,43,38,64,50,29,30.25,30.10,12,1,12,0.00
2013-9-14,79,65,51,42,39,33,64,41,21,30.13,29.89,17,4,17,0.00
2013-9-15,72,67,63,59,51,42,63,56,38,30.23,29.83,16,5,16,0.04
2013-9-16,68,60,54,53,45,38,63,57,51,30.36,30.23,12,2,12,0.00
2013-9-17,68,60,55,48,41,34,63,49,41,30.26,29.98,12,4,12,0.81
2013-9-18,92,78,67,67,58,44,64,50,39,29.98,29.70,22,7,22,0.00
2013-9-19,88,80,77,68,65,63,64,60,46,29.78,29.64,20,6,20,0.00
2013-9-20,71,63,54,49,47,42,66,56,44,30.00,29.92,16,3,16,0.00
2013-9-21,75,59,44,46,40,28,67,51,25,30.05,29.91,8,1,8,0.00
2013-9-22,81,65,53,51,46,39,67,52,33,29.98,29.86,15,4,15,0.00
2013-9-23,78,66,57,51,47,44,66,51,32,29.95,29.82,20,6,20,0.00
2013-9-24,77,66,60,57,51,47,64,59,45,29.89,29.82,12,2,12,0.00
2013-9-25,81,68,54,56,50,36,67,55,39,29.94,29.81,13,1,13,0.00
2013-9-26,86,73,62,61,54,43,66,53,37,29.91,29.82,24,6,24,0.00
2013-9-27,88,76,69,61,58,53,65,53,31,29.94,29.82,24,8,24,0.00
2013-9-28,73,64,53,60,51,40,68,62,53,30.06,29.74,18,5,18,0.10
2013-9-29,78,60,43,48,38,27,67,46,23,30.09,29.91,15,3,15,0.00
2013-9-30,79,65,52,54,46,38,66,51,29,29.92,29.73,22,6,22,0.00
2013-10-1,84,71,60,55,50,42,66,51,29,29.96,29.77,12,2,12,0.00
2013-10-2,86,71,58,61,52,42,63,51,39,30.01,29.83,15,3,15,0.00
2013-10-3,82,72,67,64,52,43,65,50,40,29.83,29.73,13,2,13,0.30
2013-10-4,79,66,62,70,43,37,76,44,38,29.88,29.71,18,2,18,1.07
2013-10-5,73,56,48,63,44,36,76,63,45,29.93,29.78,9,1,0,0.00
2013-10-6,53,48,45,45,40,36,79,74,65,29.93,29.77,5,0,0,0.16
2013-10-7,75,58,45,49,44,38,81,64,34,30.05,29.93,8,1,0,0.00
2013-10-8,78,63,50,51,48,42,79,60,35,30.07,29.96,14,2,0,0.00
2013-10-9,77,64,52,54,50,43,79,62,39,30.10,30.01,11,2,0,0.00
2013-10-10,80,64,52,58,51,45,79,63,36,30.07,29.87,7,1,0,0.00
2013-10-11,74,66,59,64,58,50,78,74,69,29.87,29.71,11,3,0,0.00
2013-10-12,67,57,45,44,40,37,79,54,33,30.27,29.98,6,1,0,0.00
2013-10-13,68,48,38,42,36,31,80,67,33,30.47,30.28,4,0,0,0.00
2013-10-14,66,55,44,49,39,35,78,57,40,30.36,29.80,18,2,0,0.02
2013-10-15,60,57,50,52,47,44,80,70,61,29.97,29.75,12,3,0,0.37
2013-10-16,51,48,40,44,41,32,80,77,71,30.04,29.97,7,1,0,0.00
2013-10-17,64,50,38,45,38,30,81,65,37,29.98,29.84,6,1,0,0.00
2013-10-18,51,45,41,39,35,31,81,68,47,30.10,29.98,7,0,0,0.00
2013-10-19,57,45,37,39,34,32,80,68,41,29.99,29.84,6,0,0,0.00
2013-10-20,61,46,41,45,38,34,80,74,57,29.97,29.73,5,0,0,0.00
2013-10-21,45,40,35,36,32,25,80,73,47,30.11,29.96,8,1,0,0.00
2013-10-22,46,43,38,40,36,30,82,77,72,30.12,29.89,11,1,0,0.05
2013-10-23,43,38,34,36,32,29,82,77,64,30.20,30.11,3,0,0,0.03
2013-10-24,37,35,34,31,29,28,82,80,76,30.42,30.20,0,0,0,0.01
2013-10-25,57,40,28,34,28,22,82,66,39,30.46,30.21,12,2,0,0.00
2013-10-26,53,44,34,35,31,28,80,60,41,30.19,30.01,8,1,0,0.00
2013-10-27,57,36,29,36,28,23,81,73,44,30.17,30.00,9,1,0,0.00
2013-10-28,47,41,39,37,35,33,81,78,67,30.31,30.01,6,1,0,0.00
2013-10-29,57,49,42,50,42,36,80,77,70,30.30,30.01,3,0,0,0.01
2013-10-30,66,58,54,58,45,39,76,62,52,30.02,29.67,7,1,0,0.77
2013-10-31,54,47,44,44,40,34,83,75,60,29.68,29.48,7,0,0,0.00
2013-11-1,57,48,42,42,40,37,82,74,55,29.78,29.53,5,1,0,0.00
2013-11-2,53,44,38,40,36,31,82,74,53,30.16,30.12,4,0,0,0.04
2013-11-3,56,42,36,38,32,28,83,71,46,30.17,29.93,12,2,0,0.00
2013-11-4,57,52,49,48,44,38,81,74,63,30.17,29.90,13,3,0,0.09
2013-11-5,57,50,43,43,40,33,81,70,56,30.19,29.79,9,1,0,0.60
2013-11-6,45,39,32,35,32,28,85,74,55,30.31,29.88,10,2,0,0.00
2013-11-7,46,38,31,36,30,26,84,74,51,30.37,30.28,6,1,0,0.00
2013-11-8,60,56,51,39,38,37,63,51,44,29.85,29.80,10,3,0,0.00
2013-11-9,58,49,38,41,36,30,74,62,48,30.33,29.85,8,2,0,0.00
2013-11-10,38,32,28,30,27,24,83,79,72,30.48,30.34,4,1,0,0.00
2013-11-13,47,42,39,24,21,20,48,43,40,30.19,30.07,10,3,0,0.00
2013-11-14,54,44,37,32,27,21,69,53,40,30.07,29.90,10,1,0,0.00
2013-11-15,58,45,31,39,34,27,83,67,45,29.95,29.72,10,2,0,0.00
2013-11-16,68,58,45,59,51,40,82,78,67,29.72,29.31,12,4,0,0.01
2013-11-17,52,47,41,47,41,36,83,77,71,30.00,29.47,11,3,0,0.24
2013-11-18,46,39,33,36,32,28,84,77,61,30.31,29.99,10,2,0,0.00
2013-11-19,56,44,33,35,32,28,85,63,40,30.30,30.01,19,4,0,0.00
2013-11-20,47,42,39,38,34,27,84,74,46,30.04,29.90,17,4,0,0.04
2013-11-21,39,34,28,31,27,22,85,76,65,30.51,30.04,11,2,0,0.00
2013-11-22,27,20,16,22,16,10,86,81,70,30.73,30.52,5,1,0,0.00
2013-11-23,18,14,10,12,7,4,80,75,66,30.94,30.69,5,1,0,0.00
2013-11-24,28,22,6,13,11,3,85,62,47,30.80,30.32,14,4,0,0.00
2013-11-25,38,31,24,29,23,14,84,73,59,30.32,30.14,12,1,0,0.06
2013-11-26,30,25,16,25,16,9,84,69,51,30.45,30.19,13,2,0,0.00
2013-11-27,29,21,10,16,11,6,84,67,50,30.50,30.13,10,1,0,0.00
2013-11-28,32,26,19,20,17,14,79,70,58,30.59,30.10,8,2,0,0.00
2013-11-29,40,28,14,26,20,10,85,73,55,30.60,30.26,9,2,0,0.00
2013-11-30,52,39,31,36,30,26,83,72,52,30.25,30.08,6,0,0,0.01
2013-12-1,42,35,28,31,29,24,84,78,63,30.21,29.94,3,0,0,0.00
2013-12-2,44,38,34,39,33,29,83,82,78,29.94,29.59,4,0,0,0.00
2013-12-3,46,41,37,41,32,28,84,72,65,29.70,29.55,2,0,0,0.00
2013-12-4,39,31,18,28,23,12,86,72,62,30.02,29.56,12,4,0,0.03
2013-12-5,18,13,8,12,6,0,78,71,65,30.52,30.00,12,5,0,0.00
2013-12-6,13,7,2,3,-1,-5,75,69,60,30.80,30.50,10,2,0,0.00
2013-12-7,13,6,-3,2,-3,-8,79,67,52,30.90,30.62,9,0,0,0.00
2013-12-8,20,17,12,17,11,2,86,79,63,30.60,30.09,7,1,0,0.00
2013-12-9,17,6,1,13,0,-5,86,76,61,30.40,30.16,10,2,0,0.00
2013-12-10,23,18,6,15,9,-2,76,69,57,30.32,30.10,11,2,0,0.00
2013-12-11,28,8,2,24,2,-5,85,74,67,30.74,30.29,12,1,0,0.00
2013-12-12,31,19,4,20,11,-2,84,70,59,30.61,30.19,5,1,0,0.02
2013-12-13,33,25,18,25,20,14,85,82,72,30.19,30.00,6,1,0,0.01
2013-12-14,24,21,13,21,16,8,85,83,78,30.25,30.11,12,3,0,0.00
2013-12-15,20,15,11,12,9,6,83,76,67,30.25,30.11,5,0,0,0.00
2013-12-16,30,22,13,25,18,9,92,84,81,30.18,30.05,8,1,0,0.00
2013-12-17,37,31,20,28,22,15,85,71,50,30.27,30.14,17,3,0,0.01
2013-12-18,50,35,18,34,26,14,84,72,54,30.23,29.78,10,2,0,0.00
2013-12-19,39,34,30,32,28,24,84,80,74,29.92,29.78,10,2,0,0.00
2013-12-20,30,26,23,24,21,19,85,81,77,29.98,29.86,5,1,0,0.00
2013-12-21,28,24,21,25,20,18,92,85,78,29.97,29.82,5,1,0,0.00
2013-12-22,28,19,6,22,14,1,94,81,76,30.44,29.83,12,3,0,0.00
2013-12-23,7,2,-4,1,-6,-12,82,69,59,30.69,30.44,11,2,0,0.00
2013-12-24,20,5,-10,16,-2,-15,85,72,59,30.69,30.29,13,2,0,0.00
2013-12-25,34,26,20,30,21,16,86,81,71,30.34,30.20,9,2,0,0.06
2013-12-26,39,30,20,28,24,15,84,77,65,30.30,30.14,5,0,0,0.10
2013-12-27,49,36,20,33,27,16,85,71,52,30.30,30.11,6,1,0,0.11
2013-12-28,53,41,26,34,30,22,84,68,47,30.11,29.82,12,2,0,0.00
2013-12-29,25,9,0,20,0,-9,84,67,48,30.45,30.02,16,5,0,0.00
2013-12-30,18,9,-1,14,2,-9,85,76,61,30.44,30.22,10,1,0,0.00
2013-12-31,16,10,6,9,5,2,85,80,70,30.41,30.26,6,1,0,0.00
2014-1-1,11,8,5,7,3,0,89,81,78,30.48,30.28,10,2,0,0.00
2014-1-2,9,3,-5,0,-3,-9,83,75,65,30.61,30.44,10,1,0,0.00